createdAt,value
2023-02-17T00:01:25.513Z,47.85
2023-02-17T00:03:53.838Z,47.15
2023-02-17T00:06:24.408Z,46.72
2023-02-17T00:08:52.779Z,47.08
2023-02-17T00:11:20.778Z,46.20
2023-02-17T00:13:48.645Z,45.85
2023-02-17T00:16:21.489Z,44.45
2023-02-17T00:19:00.765Z,46.10
2023-02-17T00:21:32.318Z,46.38
2023-02-17T00:24:00.529Z,44.75
2023-02-17T00:26:28.372Z,46.42
2023-02-17T00:28:57.930Z,46.63
2023-02-17T00:31:25.655Z,45.72
2023-02-17T00:33:56.041Z,47.05
2023-02-17T00:36:24.244Z,46.78
2023-02-17T00:38:53.909Z,45.45
2023-02-17T00:41:23.224Z,47.10
2023-02-17T00:43:51.074Z,46.22
2023-02-17T00:46:19.245Z,45.53
2023-02-17T00:48:48.202Z,46.15
2023-02-17T00:51:17.374Z,45.53
2023-02-17T00:53:45.896Z,45.15
2023-02-17T00:56:14.283Z,46.10
2023-02-17T00:58:42.514Z,44.97
2023-02-17T01:01:11.372Z,45.13
2023-02-17T01:03:42.328Z,46.60
2023-02-17T01:06:18.564Z,45.95
2023-02-17T01:08:46.450Z,44.72
2023-02-17T01:11:19.356Z,46.08
2023-02-17T01:13:47.350Z,45.60
2023-02-17T01:16:42.059Z,45.97
2023-02-17T01:19:14.198Z,44.28
2023-02-17T01:21:42.282Z,45.55
2023-02-17T01:24:13.320Z,46.30
2023-02-17T01:26:41.239Z,45.00
2023-02-17T01:29:09.274Z,45.70
2023-02-17T01:31:37.420Z,45.38
2023-02-17T01:34:05.683Z,44.40
2023-02-17T01:36:33.593Z,45.28
2023-02-17T01:39:01.719Z,45.45
2023-02-17T01:41:29.909Z,44.83
2023-02-17T01:44:21.731Z,43.08
2023-02-17T01:46:51.836Z,43.25
2023-02-17T01:49:22.522Z,44.67
2023-02-17T01:51:59.965Z,43.53
2023-02-17T01:54:33.475Z,43.65
2023-02-17T01:57:03.122Z,44.45
2023-02-17T01:59:32.077Z,44.22
2023-02-17T02:02:03.578Z,44.85
2023-02-17T02:04:36.067Z,43.53
2023-02-17T02:07:06.157Z,41.72
2023-02-17T02:09:40.993Z,42.30
2023-02-17T02:12:30.064Z,42.47
2023-02-17T02:15:06.048Z,44.60
2023-02-17T02:18:04.642Z,42.92
2023-02-17T02:21:02.801Z,42.63
2023-02-17T02:23:54.187Z,43.25
2023-02-17T02:29:26.273Z,43.78
2023-02-17T02:32:09.110Z,43.08
2023-02-17T02:34:57.687Z,43.78
2023-02-17T02:37:32.908Z,44.80
2023-02-17T02:40:06.758Z,45.42
2023-02-17T02:42:37.125Z,44.38
2023-02-17T02:45:10.670Z,43.10
2023-02-17T02:47:49.858Z,43.40
2023-02-17T02:50:44.927Z,41.60
2023-02-17T02:53:38.591Z,43.03
2023-02-17T02:56:15.116Z,43.70
2023-02-17T02:59:22.009Z,44.60
2023-02-17T03:02:14.008Z,45.40
2023-02-17T03:05:06.316Z,43.53
2023-02-17T03:07:47.496Z,43.33
2023-02-17T03:10:16.234Z,43.97
2023-02-17T03:12:44.314Z,42.55
2023-02-17T03:15:26.729Z,44.72
2023-02-17T03:17:58.081Z,46.17
2023-02-17T03:20:32.939Z,46.83
2023-02-17T03:23:00.683Z,44.67
2023-02-17T03:25:30.192Z,44.63
2023-02-17T03:27:58.239Z,44.72
2023-02-17T03:30:26.695Z,46.38
2023-02-17T03:32:54.543Z,44.60
2023-02-17T03:35:22.469Z,44.80
2023-02-17T03:37:50.359Z,46.17
2023-02-17T03:40:18.461Z,45.22
2023-02-17T03:42:46.366Z,45.92
2023-02-17T03:45:14.428Z,47.92
2023-02-17T03:47:42.123Z,44.90
2023-02-17T03:50:10.400Z,46.05
2023-02-17T03:52:38.173Z,47.17
2023-02-17T03:55:06.377Z,47.13
2023-02-17T03:57:34.862Z,47.17
2023-02-17T04:00:04.513Z,47.03
2023-02-17T04:02:43.695Z,45.05
2023-02-17T04:05:12.033Z,45.35
2023-02-17T04:07:39.840Z,46.65
2023-02-17T04:10:09.505Z,46.00
2023-02-17T04:12:37.418Z,47.08
2023-02-17T04:15:05.696Z,45.38
2023-02-17T04:17:33.476Z,45.78
2023-02-17T04:20:01.378Z,43.78
2023-02-17T04:22:29.354Z,45.67
2023-02-17T04:24:57.281Z,43.95
2023-02-17T04:27:24.992Z,45.10
2023-02-17T04:29:53.052Z,47.25
2023-02-17T04:32:20.738Z,44.53
2023-02-17T04:34:48.682Z,46.40
2023-02-17T04:37:16.389Z,47.25
2023-02-17T04:39:44.391Z,47.08
2023-02-17T04:42:12.065Z,46.42
2023-02-17T04:44:39.978Z,45.60
2023-02-17T04:47:07.678Z,48.20
2023-02-17T04:49:35.636Z,46.10
2023-02-17T04:52:03.448Z,47.72
2023-02-17T04:54:31.394Z,46.80
2023-02-17T04:56:59.044Z,46.28
2023-02-17T04:59:27.102Z,46.17
2023-02-17T05:01:54.742Z,44.90
2023-02-17T05:04:22.848Z,45.78
2023-02-17T05:06:50.594Z,44.42
2023-02-17T05:09:18.659Z,44.17
2023-02-17T05:11:46.370Z,44.88
2023-02-17T05:14:14.696Z,44.47
2023-02-17T05:16:42.480Z,46.17
2023-02-17T05:19:10.452Z,47.92
2023-02-17T05:21:38.296Z,45.35
2023-02-17T05:24:06.514Z,46.95
2023-02-17T05:26:34.390Z,45.97
2023-02-17T05:29:02.412Z,43.50
2023-02-17T05:31:30.403Z,44.80
2023-02-17T05:33:58.567Z,47.15
2023-02-17T05:36:26.291Z,44.92
2023-02-17T05:38:54.396Z,46.15
2023-02-17T05:41:22.372Z,43.88
2023-02-17T05:43:50.343Z,46.10
2023-02-17T05:46:18.125Z,45.88
2023-02-17T05:48:46.312Z,46.05
2023-02-17T05:51:17.190Z,46.95
2023-02-17T05:53:45.432Z,45.22
2023-02-17T05:56:13.145Z,44.63
2023-02-17T05:58:41.079Z,46.33
2023-02-17T06:01:13.216Z,45.92
2023-02-17T06:03:41.464Z,46.20
2023-02-17T06:06:09.273Z,48.05
2023-02-17T06:08:37.491Z,47.22
2023-02-17T06:11:05.340Z,46.58
2023-02-17T06:13:33.653Z,47.80
2023-02-17T06:16:01.519Z,48.10
2023-02-17T06:18:30.082Z,45.30
2023-02-17T06:20:58.693Z,47.55
2023-02-17T06:23:27.656Z,48.33
2023-02-17T06:25:55.665Z,46.90
2023-02-17T06:28:23.670Z,44.35
2023-02-17T06:30:51.499Z,48.20
2023-02-17T06:33:19.610Z,45.50
2023-02-17T06:35:51.945Z,45.60
2023-02-17T06:38:20.499Z,47.28
2023-02-17T06:40:48.286Z,47.78
2023-02-17T06:43:16.313Z,45.72
2023-02-17T06:45:44.212Z,47.85
2023-02-17T06:48:12.446Z,46.20
2023-02-17T06:50:40.312Z,45.97
2023-02-17T06:53:08.558Z,45.28
2023-02-17T06:55:37.341Z,47.33
2023-02-17T06:58:05.430Z,47.65
2023-02-17T07:00:33.202Z,45.80
2023-02-17T07:03:01.357Z,44.20
2023-02-17T07:05:29.248Z,46.08
2023-02-17T07:08:00.293Z,45.00
2023-02-17T07:10:28.055Z,43.92
2023-02-17T07:12:56.035Z,45.53
2023-02-17T07:15:23.725Z,44.20
2023-02-17T07:17:51.685Z,45.80
2023-02-17T07:20:19.538Z,45.78
2023-02-17T07:22:47.537Z,45.28
2023-02-17T07:25:15.309Z,45.78
2023-02-17T07:27:43.356Z,44.05
2023-02-17T07:30:11.675Z,43.78
2023-02-17T07:32:39.725Z,43.05
2023-02-17T07:35:07.583Z,43.60
2023-02-17T07:37:35.758Z,43.63
2023-02-17T07:40:04.231Z,43.50
2023-02-17T07:42:32.274Z,44.00
2023-02-17T07:45:00.024Z,44.35
2023-02-17T07:47:28.055Z,42.45
2023-02-17T07:49:55.969Z,43.88
2023-02-17T07:52:23.942Z,43.30
2023-02-17T07:54:51.707Z,43.50
2023-02-17T07:57:19.688Z,42.55
2023-02-17T07:59:48.208Z,42.63
2023-02-17T08:02:16.470Z,43.33
2023-02-17T08:04:44.756Z,42.00
2023-02-17T08:07:12.782Z,41.75
2023-02-17T08:09:59.234Z,41.30
2023-02-17T08:12:45.844Z,40.00
2023-02-17T08:15:13.812Z,40.35
2023-02-17T08:17:41.929Z,41.03
2023-02-17T08:20:10.114Z,41.22
2023-02-17T08:22:38.532Z,40.30
2023-02-17T08:25:06.552Z,41.40
2023-02-17T08:27:34.815Z,41.38
2023-02-17T08:30:02.752Z,40.78
2023-02-17T08:32:30.802Z,41.42
2023-02-17T08:34:58.946Z,39.55
2023-02-17T08:37:27.215Z,40.33
2023-02-17T08:39:54.970Z,39.78
2023-02-17T08:42:23.417Z,39.40
2023-02-17T08:44:51.367Z,39.30
2023-02-17T08:47:19.478Z,39.47
2023-02-17T08:49:47.204Z,38.13
2023-02-17T08:52:15.697Z,37.53
2023-02-17T08:54:43.398Z,38.42
2023-02-17T08:57:11.531Z,36.33
2023-02-17T08:59:39.278Z,37.78
2023-02-17T09:02:07.480Z,37.25
2023-02-17T09:04:35.245Z,36.63
2023-02-17T09:07:03.401Z,37.40
2023-02-17T09:09:31.752Z,38.25
2023-02-17T09:11:59.902Z,37.05
2023-02-17T09:14:28.054Z,38.17
2023-02-17T09:16:56.694Z,36.47
2023-02-17T09:19:25.032Z,36.47
2023-02-17T09:21:53.917Z,36.28
2023-02-17T09:24:21.566Z,36.45
2023-02-17T09:26:49.586Z,36.35
2023-02-17T09:29:17.306Z,36.60
2023-02-17T09:31:46.165Z,35.17
2023-02-17T09:34:15.283Z,35.08
2023-02-17T09:36:43.871Z,35.30
2023-02-17T09:39:14.008Z,34.38
2023-02-17T09:41:52.099Z,34.60
2023-02-17T09:44:24.738Z,34.50
2023-02-17T09:47:16.271Z,35.60
2023-02-17T09:50:06.734Z,35.72
2023-02-17T09:52:49.194Z,34.38
2023-02-17T09:55:29.974Z,34.13
2023-02-17T09:58:13.299Z,35.22
2023-02-17T10:00:46.598Z,34.30
2023-02-17T10:03:33.655Z,33.55
2023-02-17T10:06:27.666Z,33.92
2023-02-17T10:08:59.112Z,33.35
2023-02-17T10:11:40.417Z,31.77
2023-02-17T10:14:28.999Z,32.17
2023-02-17T10:17:23.497Z,33.85
2023-02-17T10:22:24.460Z,32.53
2023-02-17T10:24:53.428Z,34.60
2023-02-17T10:27:39.558Z,32.17
2023-02-17T10:30:19.730Z,32.67
2023-02-17T10:33:01.744Z,32.40
2023-02-17T10:35:38.841Z,34.00
2023-02-17T10:38:34.825Z,34.45
2023-02-17T10:41:05.991Z,34.70
2023-02-17T10:43:34.536Z,32.35
2023-02-17T10:46:08.245Z,34.90
2023-02-17T10:48:40.925Z,33.47
2023-02-17T10:51:13.429Z,33.38
2023-02-17T10:53:44.397Z,31.13
2023-02-17T10:56:15.278Z,35.90
2023-02-17T10:59:06.591Z,35.47
2023-02-17T11:01:36.472Z,34.30
2023-02-17T11:04:08.510Z,34.80
2023-02-17T11:06:54.938Z,33.60
2023-02-17T11:09:28.902Z,33.10
2023-02-17T11:12:04.582Z,33.10
2023-02-17T11:14:33.803Z,33.88
2023-02-17T11:17:15.007Z,33.60
2023-02-17T11:19:42.761Z,33.75
2023-02-17T11:22:31.019Z,33.50
2023-02-17T11:25:00.778Z,33.75
2023-02-17T11:27:28.858Z,32.55
2023-02-17T11:30:14.905Z,34.20
2023-02-17T11:32:42.946Z,31.73
2023-02-17T11:35:27.319Z,33.92
2023-02-17T11:38:12.739Z,33.70
2023-02-17T11:40:52.022Z,34.60
2023-02-17T11:43:20.587Z,33.97
2023-02-17T11:46:17.936Z,34.47
2023-02-17T11:49:21.766Z,34.35
2023-02-17T11:51:52.276Z,32.95
2023-02-17T11:54:44.581Z,34.25
2023-02-17T11:57:37.042Z,34.72
2023-02-17T12:00:13.688Z,33.33
2023-02-17T12:02:59.440Z,33.17
2023-02-17T12:05:39.956Z,34.10
2023-02-17T12:08:22.410Z,34.95
2023-02-17T12:11:32.361Z,33.08
2023-02-17T12:14:31.630Z,33.90
2023-02-17T12:17:22.251Z,34.63
2023-02-17T12:20:07.226Z,32.95
2023-02-17T12:23:13.457Z,33.50
2023-02-17T12:26:04.659Z,33.72
2023-02-17T12:28:49.594Z,32.60
2023-02-17T12:31:44.962Z,33.05
2023-02-17T12:34:29.908Z,32.40
2023-02-17T12:36:59.276Z,34.25
2023-02-17T12:39:34.559Z,32.83
2023-02-17T12:42:27.208Z,33.53
2023-02-17T12:45:03.299Z,32.45
2023-02-17T12:47:39.053Z,33.63
2023-02-17T12:50:28.780Z,32.97
2023-02-17T12:53:02.050Z,32.80
2023-02-17T12:55:48.807Z,32.13
2023-02-17T12:58:25.159Z,33.72
2023-02-17T13:01:19.047Z,35.03
2023-02-17T13:03:46.935Z,34.10
2023-02-17T13:06:30.338Z,32.13
2023-02-17T13:09:16.828Z,34.20
2023-02-17T13:11:45.686Z,34.50
2023-02-17T13:14:27.401Z,32.38
2023-02-17T13:16:55.873Z,33.95
2023-02-17T13:19:32.727Z,32.47
2023-02-17T13:22:05.713Z,32.72
2023-02-17T13:24:35.002Z,32.72
2023-02-17T13:27:31.291Z,32.92
2023-02-17T13:30:01.951Z,32.63
2023-02-17T13:32:34.376Z,32.30
2023-02-17T13:35:17.793Z,32.08
2023-02-17T13:37:46.843Z,31.50
2023-02-17T13:40:20.187Z,31.75
2023-02-17T13:43:07.944Z,32.40
2023-02-17T13:45:57.538Z,31.77
2023-02-17T13:48:28.634Z,31.33
2023-02-17T13:51:00.284Z,32.45
2023-02-17T13:53:37.921Z,32.28
2023-02-17T13:56:07.600Z,32.65
2023-02-17T13:58:38.762Z,30.67
2023-02-17T14:01:15.297Z,31.48
2023-02-17T14:03:46.695Z,30.50
2023-02-17T14:06:40.673Z,30.92
2023-02-17T14:09:24.693Z,31.65
2023-02-17T14:11:54.162Z,29.55
2023-02-17T14:14:26.238Z,30.75
2023-02-17T14:17:02.427Z,31.63
2023-02-17T14:19:42.154Z,30.08
2023-02-17T14:22:28.944Z,30.73
2023-02-17T14:25:07.016Z,29.67
2023-02-17T14:27:45.324Z,28.05
2023-02-17T14:30:29.899Z,31.08
2023-02-17T14:35:53.641Z,27.60
2023-02-17T14:38:28.556Z,28.65
2023-02-17T14:40:56.952Z,29.52
2023-02-17T14:43:25.189Z,29.48
2023-02-17T14:45:53.603Z,29.23
2023-02-17T14:48:21.386Z,26.88
2023-02-17T14:50:49.584Z,27.25
2023-02-17T14:53:36.528Z,29.23
2023-02-17T14:56:12.618Z,29.02
2023-02-17T14:58:40.605Z,28.50
2023-02-17T15:01:14.939Z,26.92
2023-02-17T15:03:42.768Z,30.10
2023-02-17T15:06:16.689Z,30.08
2023-02-17T15:08:46.004Z,30.05
2023-02-17T15:11:24.485Z,31.48
2023-02-17T15:13:52.287Z,29.90
2023-02-17T15:16:20.275Z,29.05
2023-02-17T15:18:47.981Z,31.00
2023-02-17T15:21:26.934Z,30.23
2023-02-17T15:23:55.630Z,30.40
2023-02-17T15:26:23.780Z,29.63
2023-02-17T15:28:51.889Z,29.85
2023-02-17T15:31:21.602Z,29.42
2023-02-17T15:34:13.230Z,31.13
2023-02-17T15:36:41.187Z,29.42
2023-02-17T15:39:11.610Z,29.73
2023-02-17T15:41:40.939Z,28.38
2023-02-17T15:44:16.361Z,30.08
2023-02-17T15:46:46.205Z,30.13
2023-02-17T15:49:14.678Z,30.70
2023-02-17T15:51:42.917Z,31.15
2023-02-17T15:54:10.689Z,30.42
2023-02-17T15:56:49.612Z,30.30
2023-02-17T15:59:21.137Z,31.77
2023-02-17T16:01:50.773Z,32.58
2023-02-17T16:04:18.950Z,30.00
2023-02-17T16:06:46.976Z,31.42
2023-02-17T16:09:15.073Z,31.92
2023-02-17T16:12:01.655Z,30.88
2023-02-17T16:14:35.352Z,29.75
2023-02-17T16:19:33.455Z,29.83
2023-02-17T16:22:01.835Z,31.10
2023-02-17T16:24:29.764Z,30.50
2023-02-17T16:26:57.794Z,31.73
2023-02-17T16:29:25.468Z,31.65
2023-02-17T16:31:54.376Z,31.90
2023-02-17T16:34:24.188Z,30.10
2023-02-17T16:36:56.649Z,31.90
2023-02-17T16:39:24.464Z,30.80
2023-02-17T16:41:52.541Z,31.30
2023-02-17T16:44:23.316Z,28.88
2023-02-17T16:46:53.634Z,29.15
2023-02-17T16:49:33.809Z,29.17
2023-02-17T16:52:05.008Z,28.65
2023-02-17T16:54:35.475Z,28.05
2023-02-17T16:57:03.873Z,29.38
2023-02-17T16:59:32.944Z,30.50
2023-02-17T17:02:01.578Z,26.38
2023-02-17T17:04:29.398Z,28.92
2023-02-17T17:06:57.419Z,27.65
2023-02-17T17:09:25.450Z,28.55
2023-02-17T17:11:53.722Z,27.90
2023-02-17T17:14:21.957Z,26.65
2023-02-17T17:16:58.591Z,27.02
2023-02-17T17:19:26.371Z,28.50
2023-02-17T17:21:54.371Z,27.63
2023-02-17T17:24:22.439Z,26.92
2023-02-17T17:26:51.593Z,28.30
2023-02-17T17:29:20.124Z,26.08
2023-02-17T17:31:48.738Z,28.17
2023-02-17T17:34:16.590Z,25.90
2023-02-17T17:36:46.884Z,28.23
2023-02-17T17:39:17.932Z,27.00
2023-02-17T17:41:46.446Z,25.77
2023-02-17T17:44:14.349Z,26.98
2023-02-17T17:46:42.799Z,28.48
2023-02-17T17:49:13.642Z,25.23
2023-02-17T17:51:41.854Z,26.02
2023-02-17T17:54:09.782Z,26.98
2023-02-17T17:56:42.970Z,27.15
2023-02-17T17:59:12.049Z,26.90
2023-02-17T18:01:40.103Z,24.83
2023-02-17T18:04:09.418Z,21.98
2023-02-17T18:06:48.745Z,23.33
2023-02-17T18:09:31.408Z,24.33
2023-02-17T18:12:04.533Z,22.85
2023-02-17T18:14:34.868Z,23.80
2023-02-17T18:17:03.195Z,23.95
2023-02-17T18:19:32.144Z,22.02
2023-02-17T18:22:00.187Z,21.98
2023-02-17T18:24:28.260Z,21.67
2023-02-17T18:26:56.336Z,20.02
2023-02-17T18:29:24.266Z,20.83
2023-02-17T18:31:52.723Z,19.25
2023-02-17T18:34:20.619Z,19.85
2023-02-17T18:36:48.634Z,20.15
2023-02-17T18:39:16.397Z,19.30
2023-02-17T18:41:44.410Z,19.08
2023-02-17T18:44:13.726Z,18.65
2023-02-17T18:46:42.551Z,18.92
2023-02-17T18:49:10.704Z,19.90
2023-02-17T18:51:38.724Z,20.17
2023-02-17T18:54:10.860Z,19.08
2023-02-17T18:56:39.092Z,18.42
2023-02-17T18:59:07.553Z,16.95
2023-02-17T19:01:39.564Z,17.95
2023-02-17T19:04:09.702Z,18.95
2023-02-17T19:06:37.760Z,16.95
2023-02-17T19:09:05.999Z,17.20
2023-02-17T19:11:34.194Z,18.20
2023-02-17T19:14:03.284Z,17.83
2023-02-17T19:16:32.606Z,17.67
2023-02-17T19:19:00.884Z,18.05
2023-02-17T19:21:29.024Z,16.77
2023-02-17T19:23:56.977Z,18.10
2023-02-17T19:26:25.049Z,18.85
2023-02-17T19:28:52.845Z,18.63
2023-02-17T19:31:21.315Z,18.10
2023-02-17T19:33:49.268Z,18.27
2023-02-17T19:36:20.393Z,17.75
2023-02-17T19:38:49.636Z,18.80
2023-02-17T19:41:18.703Z,18.13
2023-02-17T19:43:46.649Z,18.38
2023-02-17T19:46:21.009Z,18.85
2023-02-17T19:48:48.834Z,18.75
2023-02-17T19:51:16.912Z,18.75
2023-02-17T19:53:45.128Z,18.75
2023-02-17T19:56:25.819Z,20.00
2023-02-17T19:58:54.295Z,21.67
2023-02-17T20:01:25.218Z,20.58
2023-02-17T20:03:54.667Z,21.48
2023-02-17T20:06:31.297Z,23.15
2023-02-17T20:09:05.081Z,23.00
2023-02-17T20:11:33.515Z,21.67
2023-02-17T20:14:02.385Z,26.58
2023-02-17T20:16:31.171Z,27.00
2023-02-17T20:19:03.266Z,25.77
2023-02-17T20:21:33.629Z,28.20
2023-02-17T20:24:01.788Z,28.45
2023-02-17T20:26:38.271Z,28.88
2023-02-17T20:29:06.325Z,30.60
2023-02-17T20:31:39.275Z,30.13
2023-02-17T20:34:08.662Z,29.95
2023-02-17T20:36:36.607Z,29.05
2023-02-17T20:39:05.221Z,29.00
2023-02-17T20:41:33.145Z,30.42
2023-02-17T20:44:02.928Z,29.88
2023-02-17T20:46:31.873Z,29.63
2023-02-17T20:48:59.701Z,29.08
2023-02-17T20:51:27.678Z,27.58
2023-02-17T20:53:55.332Z,29.55
2023-02-17T20:56:24.935Z,27.98
2023-02-17T20:58:53.029Z,26.92
2023-02-17T21:01:21.129Z,27.33
2023-02-17T21:03:49.387Z,28.30
2023-02-17T21:06:24.509Z,27.55
2023-02-17T21:08:55.094Z,28.50
2023-02-17T21:11:23.595Z,27.27
2023-02-17T21:13:51.510Z,26.73
2023-02-17T21:16:23.687Z,25.90
2023-02-17T21:18:51.885Z,25.55
2023-02-17T21:21:20.548Z,23.73
2023-02-17T21:23:48.429Z,23.33
2023-02-17T21:26:17.373Z,22.48
2023-02-17T21:28:45.843Z,22.55
2023-02-17T21:31:15.067Z,21.80
2023-02-17T21:33:43.335Z,22.60
2023-02-17T21:36:14.327Z,22.08
2023-02-17T21:38:42.220Z,22.73
2023-02-17T21:41:16.049Z,21.25
2023-02-17T21:44:02.565Z,21.15
2023-02-17T21:46:30.609Z,21.52
2023-02-17T21:48:59.708Z,20.35
2023-02-17T21:51:29.106Z,20.20
2023-02-17T21:53:56.794Z,19.17
2023-02-17T21:56:25.770Z,17.15
2023-02-17T21:58:55.452Z,15.70
2023-02-17T22:01:25.181Z,16.60
2023-02-17T22:03:53.710Z,13.57
2023-02-17T22:06:23.260Z,12.38
2023-02-17T22:08:51.532Z,9.68
2023-02-17T22:11:22.375Z,9.20
2023-02-17T22:13:50.173Z,9.73
2023-02-17T22:16:18.172Z,10.95
2023-02-17T22:18:45.790Z,9.48
2023-02-17T22:21:14.637Z,9.52
2023-02-17T22:23:45.060Z,9.15
2023-02-17T22:26:20.166Z,8.27
2023-02-17T22:28:48.514Z,9.27
2023-02-17T22:31:19.359Z,9.07
2023-02-17T22:33:47.269Z,7.82
2023-02-17T22:36:20.018Z,6.57
2023-02-17T22:38:48.100Z,6.28
2023-02-17T22:41:18.896Z,5.78
2023-02-17T22:43:48.295Z,5.13
2023-02-17T22:46:18.674Z,4.53
2023-02-17T22:48:48.365Z,3.40
2023-02-17T22:51:22.115Z,3.35
2023-02-17T22:53:50.798Z,3.63
2023-02-17T22:56:19.379Z,3.00
2023-02-17T22:58:47.449Z,2.72
2023-02-17T23:01:22.767Z,3.22
2023-02-17T23:03:53.045Z,2.60
2023-02-17T23:06:28.560Z,2.83
2023-02-17T23:08:57.140Z,2.53
2023-02-17T23:11:49.796Z,2.75
2023-02-17T23:14:23.028Z,2.47
2023-02-17T23:16:52.191Z,2.70
2023-02-17T23:19:21.267Z,2.60
2023-02-17T23:21:52.414Z,2.70
2023-02-17T23:24:22.326Z,2.60
2023-02-17T23:26:50.982Z,2.60
2023-02-17T23:29:19.437Z,2.58
2023-02-17T23:31:47.593Z,2.38
2023-02-17T23:34:16.527Z,2.40
2023-02-17T23:36:46.303Z,2.20
2023-02-17T23:39:15.155Z,2.38
2023-02-17T23:41:43.718Z,2.70
2023-02-17T23:44:13.267Z,2.50
2023-02-17T23:46:43.212Z,2.50
2023-02-17T23:49:14.726Z,2.40
2023-02-17T23:51:43.291Z,2.53
2023-02-17T23:54:11.069Z,2.25
2023-02-17T23:56:39.348Z,2.05
2023-02-17T23:59:07.148Z,2.20
